Time;durP1;ratioP1;P1;durP2;ratioP2;P2;SDS_P1;SDS_P2;PMS_P1;PMS_P2;Temp;Humidity;BMP_temperature;BMP_pressure;BME280_temperature;BME280_humidity;BME280_pressure;Samples;Min_cycle;Max_cycle;Signal;HPM_P1;HPM_P2
2023/03/13 00:00:58;;;;;;;4.47;3.30;;;;;;;11.64;82.95;97799.31;4982380;28;20070;-47
2023/03/13 00:03:25;;;;;;;5.53;2.90;;;;;;;11.64;83.03;97797.56;4983765;28;20174;-45
2023/03/13 00:05:59;;;;;;;5.65;3.10;;;;;;;11.66;82.94;97797.50;4963574;28;20081;-48
2023/03/13 00:08:29;;;;;;;4.22;2.53;;;;;;;11.62;83.62;97804.56;4980850;28;20082;-47
2023/03/13 00:10:56;;;;;;;6.45;3.75;;;;;;;11.64;82.97;97794.97;4983771;28;20056;-48
2023/03/13 00:13:23;;;;;;;6.47;2.92;;;;;;;11.65;82.87;97785.47;4982688;28;20107;-47
2023/03/13 00:15:58;;;;;;;6.75;2.65;;;;;;;11.68;82.49;97791.34;4985595;28;20054;-43
2023/03/13 00:18:25;;;;;;;4.47;2.45;;;;;;;11.70;82.32;97773.97;4982974;28;20113;-47
2023/03/13 00:21:08;;;;;;;3.47;2.40;;;;;;;11.69;82.27;97772.28;4974794;28;20075;-48
2023/03/13 00:23:36;;;;;;;4.45;2.85;;;;;;;11.74;83.00;97784.19;4982877;28;20051;-49
2023/03/13 00:26:07;;;;;;;3.70;2.55;;;;;;;11.75;81.90;97776.34;4990368;28;20049;-46
2023/03/13 00:28:36;;;;;;;4.40;2.45;;;;;;;11.78;81.98;97771.03;4984105;28;20149;-44
2023/03/13 00:33:41;;;;;;;2.95;1.20;;;;;;;11.83;81.74;97753.50;5065580;28;20377;-45
2023/03/13 00:36:11;;;;;;;15.35;1.70;;;;;;;11.86;81.19;97756.88;5016571;28;20109;-50
2023/03/13 00:38:38;;;;;;;3.63;1.17;;;;;;;11.88;82.41;97740.34;5010716;28;20137;-49
2023/03/13 00:41:07;;;;;;;6.20;1.25;;;;;;;11.90;82.12;97717.78;5018995;28;20501;-47
2023/03/13 00:43:34;;;;;;;6.30;1.40;;;;;;;11.91;81.16;97723.78;5021250;28;20041;-51
2023/03/13 00:46:01;;;;;;;2.45;0.90;;;;;;;11.92;81.95;97704.75;5019213;28;20045;-47
2023/03/13 00:48:29;;;;;;;4.20;0.98;;;;;;;11.91;80.92;97705.63;5023661;28;20062;-44
2023/03/13 00:50:56;;;;;;;6.70;1.23;;;;;;;11.89;81.58;97715.25;5016529;28;20073;-46
2023/03/13 00:53:22;;;;;;;2.83;1.08;;;;;;;11.89;81.72;97720.44;5017548;28;20076;-45
2023/03/13 00:55:52;;;;;;;5.25;1.13;;;;;;;11.91;81.61;97719.44;5014061;28;20048;-42
2023/03/13 00:58:19;;;;;;;5.47;1.02;;;;;;;11.92;81.57;97733.28;5016374;28;20041;-50
2023/03/13 01:00:45;;;;;;;4.13;1.45;;;;;;;11.95;80.87;97730.50;5016857;28;20073;-44
2023/03/13 01:03:12;;;;;;;6.55;2.78;;;;;;;11.93;81.57;97729.75;5016514;28;20128;-45
2023/03/13 01:05:39;;;;;;;3.65;1.17;;;;;;;11.95;81.46;97721.00;5018160;28;20056;-47
2023/03/13 01:08:06;;;;;;;2.97;0.93;;;;;;;11.94;80.66;97719.31;5018242;28;20129;-47
2023/03/13 01:10:33;;;;;;;5.07;1.15;;;;;;;11.94;81.51;97714.13;5014426;28;20053;-51
2023/03/13 01:13:00;;;;;;;4.38;0.93;;;;;;;11.93;81.28;97711.59;5010241;28;20066;-47
2023/03/13 01:15:26;;;;;;;3.38;0.95;;;;;;;11.95;81.67;97709.75;5012467;28;20076;-47
2023/03/13 01:17:53;;;;;;;2.67;0.73;;;;;;;11.91;80.85;97722.03;5009258;28;20069;-47
2023/03/13 01:20:19;;;;;;;3.03;1.17;;;;;;;11.96;81.98;97727.03;5011816;28;20140;-43
2023/03/13 01:22:46;;;;;;;4.35;0.70;;;;;;;11.89;82.49;97715.25;5007953;28;20510;-44
2023/03/13 01:25:12;;;;;;;3.00;0.93;;;;;;;11.88;81.75;97703.16;5016282;28;20069;-50
2023/03/13 01:27:39;;;;;;;2.55;0.80;;;;;;;11.93;81.08;97696.03;5020722;28;20085;-46
2023/03/13 01:30:06;;;;;;;5.03;1.40;;;;;;;11.94;80.97;97698.56;5013828;28;20104;-45
2023/03/13 01:32:33;;;;;;;5.05;0.90;;;;;;;11.91;81.38;97693.50;5011735;28;20132;-45
2023/03/13 01:34:59;;;;;;;3.33;0.88;;;;;;;11.91;82.54;97687.47;5008789;28;20567;-48
2023/03/13 01:37:26;;;;;;;3.10;0.98;;;;;;;11.91;81.52;97677.09;5009228;28;20473;-46
2023/03/13 01:39:52;;;;;;;5.72;1.63;;;;;;;11.92;82.09;97678.81;5008406;28;20514;-47
2023/03/13 01:42:19;;;;;;;3.28;1.00;;;;;;;11.89;82.53;97669.38;5015510;28;20128;-45
2023/03/13 01:47:24;;;;;;;4.05;2.13;;;;;;;11.91;82.90;97640.78;5035735;27;20403;-47
2023/03/13 01:49:52;;;;;;;5.20;0.98;;;;;;;11.89;81.89;97625.28;4997600;28;20506;-45
2023/03/13 01:52:24;;;;;;;4.55;1.73;;;;;;;11.90;81.83;97624.41;4996705;28;20085;-45
2023/03/13 01:57:32;;;;;;;6.20;2.50;;;;;;;11.91;82.51;97620.03;5100048;27;20389;-48
2023/03/13 02:02:40;;;;;;;4.80;0.95;;;;;;;11.90;83.17;97624.41;5032188;27;20400;-43
2023/03/13 02:05:07;;;;;;;;;;;;;;;11.80;82.63;97617.94;4999545;28;20042;-45
2023/03/13 02:10:13;;;;;;;4.32;1.25;;;;;;;11.92;82.81;97600.97;5055616;27;20398;-45
2023/03/13 02:12:41;;;;;;;4.05;1.08;;;;;;;11.92;81.72;97591.44;4992868;28;20060;-47
2023/03/13 02:17:45;;;;;;;4.13;1.02;;;;;;;11.85;83.48;97584.03;5023162;27;20409;-48
2023/03/13 02:20:14;;;;;;;3.60;0.77;;;;;;;11.85;83.32;97573.66;5014828;28;20355;-44
2023/03/13 02:28:04;;;;;;;5.28;2.38;;;;;;;11.87;82.27;97556.25;5090975;27;20397;-50
2023/03/13 02:30:31;;;;;;;3.10;1.65;;;;;;;11.82;82.73;97546.09;5059460;28;20143;-43
2023/03/13 02:32:59;;;;;;;5.53;0.93;;;;;;;11.90;82.02;97543.13;5056325;28;20660;-45
2023/03/13 02:35:26;;;;;;;4.38;2.17;;;;;;;11.92;83.30;97543.91;5057942;28;20167;-44
2023/03/13 02:37:57;;;;;;;4.65;1.90;;;;;;;11.86;82.34;97539.88;5054364;28;20155;-48
2023/03/13 02:40:28;;;;;;;5.65;1.45;;;;;;;11.92;82.01;97512.78;5055371;28;20079;-47
2023/03/13 02:42:57;;;;;;;4.15;1.73;;;;;;;11.95;82.66;97520.41;5054297;28;20080;-47
2023/03/13 02:45:24;;;;;;;5.47;1.63;;;;;;;11.92;81.86;97518.81;5057466;28;20555;-45
2023/03/13 02:47:50;;;;;;;4.78;1.80;;;;;;;11.92;81.70;97520.56;5059417;28;20076;-43
2023/03/13 02:50:18;;;;;;;2.65;1.85;;;;;;;11.90;82.24;97502.50;5060319;28;20040;-45
2023/03/13 02:52:49;;;;;;;1.92;1.50;;;;;;;11.89;82.76;97492.19;5056004;28;20098;-47
2023/03/13 02:55:25;;;;;;;3.67;1.48;;;;;;;11.88;82.01;97482.69;5054488;28;20156;-43
2023/03/13 02:57:51;;;;;;;5.82;2.15;;;;;;;11.90;82.19;97478.28;5057184;28;20072;-44
2023/03/13 03:00:18;;;;;;;1.33;1.23;;;;;;;11.91;81.86;97472.19;5054129;28;20103;-44
2023/03/13 03:02:45;;;;;;;2.22;1.52;;;;;;;11.88;82.81;97469.75;5058786;28;20571;-46
2023/03/13 03:05:12;;;;;;;5.72;1.63;;;;;;;11.93;82.63;97476.38;5058737;28;20060;-45
2023/03/13 03:07:38;;;;;;;3.40;1.60;;;;;;;11.93;82.76;97449.63;5059030;28;20137;-49
2023/03/13 03:10:06;;;;;;;3.53;1.30;;;;;;;11.93;82.39;97457.41;5059995;28;20070;-46
2023/03/13 03:12:32;;;;;;;3.42;1.52;;;;;;;11.92;82.71;97466.09;5059368;28;20084;-44
2023/03/13 03:14:59;;;;;;;1.30;1.02;;;;;;;11.90;81.71;97437.66;5055441;28;20083;-48
2023/03/13 03:17:25;;;;;;;2.15;1.20;;;;;;;11.96;81.99;97452.06;5050687;28;20044;-48
2023/03/13 03:19:52;;;;;;;1.77;1.50;;;;;;;11.97;82.55;97451.13;5057097;28;20049;-44
2023/03/13 03:22:18;;;;;;;2.20;1.73;;;;;;;11.98;81.70;97460.59;5057005;28;20067;-45
2023/03/13 03:24:45;;;;;;;2.00;1.55;;;;;;;11.99;82.70;97457.06;5054169;28;20101;-47
2023/03/13 03:27:12;;;;;;;1.92;1.73;;;;;;;11.98;82.15;97452.81;5050245;28;20041;-46
2023/03/13 03:29:39;;;;;;;1.90;1.67;;;;;;;12.00;81.65;97463.09;5049731;28;20076;-49
2023/03/13 03:32:05;;;;;;;2.15;1.63;;;;;;;11.96;81.91;97458.06;5046188;28;20159;-45
2023/03/13 03:34:32;;;;;;;1.92;1.60;;;;;;;11.99;82.80;97464.84;5053011;28;20056;-45
2023/03/13 03:36:59;;;;;;;1.98;1.88;;;;;;;11.93;82.50;97453.03;5048987;28;20049;-45
2023/03/13 03:39:25;;;;;;;3.53;1.52;;;;;;;11.98;82.77;97455.41;5041671;28;20783;-46
2023/03/13 03:41:52;;;;;;;2.28;1.58;;;;;;;11.94;81.77;97451.28;5039115;28;20044;-49
2023/03/13 03:44:18;;;;;;;2.97;1.75;;;;;;;11.98;83.13;97452.81;5045090;28;20575;-46
2023/03/13 03:46:45;;;;;;;1.63;1.52;;;;;;;11.95;81.98;97440.00;5046113;28;20068;-48
2023/03/13 03:49:11;;;;;;;2.83;1.30;;;;;;;11.95;82.46;97434.81;5046870;28;20052;-45
2023/03/13 03:51:38;;;;;;;2.65;2.00;;;;;;;11.96;82.38;97433.91;5047408;28;20099;-48
2023/03/13 03:54:05;;;;;;;2.85;1.60;;;;;;;11.98;83.01;97433.81;5047283;28;20528;-47
2023/03/13 03:56:31;;;;;;;2.08;1.13;;;;;;;11.98;82.49;97431.22;5039306;28;20489;-44
2023/03/13 03:58:58;;;;;;;1.50;1.40;;;;;;;12.00;81.84;97417.25;5042410;28;20073;-50
2023/03/13 04:01:24;;;;;;;2.40;1.85;;;;;;;12.01;82.30;97434.50;5043656;28;20098;-49
2023/03/13 04:03:51;;;;;;;2.45;1.00;;;;;;;11.98;82.11;97426.88;5042147;28;20515;-47
2023/03/13 04:06:18;;;;;;;1.77;1.67;;;;;;;11.99;82.20;97415.56;5046272;28;20056;-47
2023/03/13 04:08:44;;;;;;;2.78;1.33;;;;;;;12.01;82.05;97403.38;5044846;28;20077;-45
2023/03/13 04:11:11;;;;;;;1.25;1.15;;;;;;;11.98;83.00;97387.97;5040525;28;20544;-49
2023/03/13 04:13:37;;;;;;;1.55;1.45;;;;;;;11.98;81.77;97403.53;5043811;28;20136;-49
2023/03/13 04:16:06;;;;;;;2.75;1.45;;;;;;;11.97;82.65;97399.25;5042459;28;20098;-47
2023/03/13 04:18:33;;;;;;;1.65;1.55;;;;;;;11.92;81.55;97401.25;5041291;28;20053;-46
2023/03/13 04:21:02;;;;;;;2.17;1.70;;;;;;;11.93;82.54;97401.16;5043143;28;20512;-44
2023/03/13 04:23:28;;;;;;;1.58;1.20;;;;;;;11.93;81.43;97395.16;5044587;28;20061;-48
2023/03/13 04:25:55;;;;;;;3.25;1.02;;;;;;;11.94;81.51;97408.03;5044853;28;20041;-45
2023/03/13 04:28:22;;;;;;;1.27;1.23;;;;;;;11.92;81.15;97402.09;5041780;28;20072;-45
2023/03/13 04:30:48;;;;;;;2.25;0.90;;;;;;;11.90;82.64;97390.09;5037837;28;20071;-45
2023/03/13 04:33:15;;;;;;;0.65;0.63;;;;;;;11.87;81.40;97374.69;5034361;28;20053;-49
2023/03/13 04:35:43;;;;;;;1.25;1.15;;;;;;;11.75;82.47;97392.56;5035578;28;20056;-47
2023/03/13 04:38:10;;;;;;;2.00;1.02;;;;;;;11.79;82.07;97382.88;5034756;28;20102;-46
2023/03/13 04:40:36;;;;;;;2.08;1.30;;;;;;;11.74;81.63;97357.19;5038276;28;20141;-46
2023/03/13 04:43:03;;;;;;;1.38;1.20;;;;;;;11.70;82.32;97358.25;5046584;28;20053;-44
2023/03/13 04:45:29;;;;;;;1.27;1.17;;;;;;;11.67;81.09;97337.66;5046876;28;20153;-44
2023/03/13 04:47:56;;;;;;;1.23;0.73;;;;;;;11.63;82.24;97336.16;5042075;28;20080;-44
2023/03/13 04:50:23;;;;;;;2.42;1.17;;;;;;;11.65;80.53;97339.50;5044679;28;20059;-47
2023/03/13 04:52:49;;;;;;;2.55;1.40;;;;;;;11.62;81.79;97340.47;5043193;28;20140;-46
2023/03/13 04:55:16;;;;;;;5.45;0.80;;;;;;;11.63;80.65;97338.72;5038750;28;20069;-43
2023/03/13 04:57:43;;;;;;;3.05;2.40;;;;;;;11.64;80.52;97348.19;5044235;28;20060;-43
2023/03/13 05:00:10;;;;;;;4.97;1.63;;;;;;;11.69;81.51;97344.44;5045124;28;20504;-48
2023/03/13 05:02:36;;;;;;;3.50;2.17;;;;;;;11.71;81.40;97344.38;5044229;28;20045;-45
2023/03/13 05:05:03;;;;;;;2.50;0.47;;;;;;;11.73;80.27;97332.19;5043817;28;20710;-45
2023/03/13 05:07:30;;;;;;;2.85;1.83;;;;;;;11.70;81.23;97332.31;5039547;28;20080;-47
2023/03/13 05:09:57;;;;;;;2.83;1.50;;;;;;;11.75;79.89;97330.31;5043440;28;20053;-49
2023/03/13 05:12:24;;;;;;;3.75;1.58;;;;;;;11.78;80.96;97340.53;5041481;28;20135;-45
2023/03/13 05:14:51;;;;;;;2.47;1.48;;;;;;;11.75;80.22;97339.88;5043283;28;20084;-44
2023/03/13 05:17:18;;;;;;;6.95;2.08;;;;;;;11.70;80.71;97332.31;5039774;28;20139;-47
2023/03/13 05:19:44;;;;;;;2.38;1.25;;;;;;;11.68;80.49;97335.00;5031363;28;20050;-49
2023/03/13 05:22:11;;;;;;;4.30;1.23;;;;;;;11.68;80.65;97337.59;5033464;28;20145;-44
2023/03/13 05:24:37;;;;;;;4.25;1.35;;;;;;;11.68;81.33;97328.97;5039790;28;20102;-45
2023/03/13 05:27:07;;;;;;;3.25;1.77;;;;;;;11.65;80.82;97344.69;5041760;28;20673;-48
2023/03/13 05:29:34;;;;;;;3.25;1.38;;;;;;;11.63;80.84;97336.16;5042073;28;20079;-46
2023/03/13 05:32:00;;;;;;;2.05;1.77;;;;;;;11.59;81.20;97322.50;5040518;28;20061;-47
2023/03/13 05:34:27;;;;;;;3.30;1.90;;;;;;;11.61;80.09;97320.66;5042585;28;20048;-45
2023/03/13 05:36:53;;;;;;;4.15;1.73;;;;;;;11.51;79.89;97312.50;5041415;28;20057;-46
2023/03/13 05:39:20;;;;;;;2.88;1.27;;;;;;;11.51;80.74;97304.75;5035080;28;20045;-47
2023/03/13 05:41:47;;;;;;;4.25;1.80;;;;;;;11.52;79.69;97303.81;5037544;28;20136;-45
2023/03/13 05:44:13;;;;;;;9.40;1.60;;;;;;;11.49;79.06;97314.38;5038434;28;20468;-45
2023/03/13 05:46:40;;;;;;;6.22;1.60;;;;;;;11.48;79.32;97312.66;5038488;28;20139;-47
2023/03/13 05:49:07;;;;;;;3.67;1.20;;;;;;;11.42;79.25;97323.38;5038946;28;20041;-44
2023/03/13 05:51:33;;;;;;;2.55;1.65;;;;;;;11.33;78.99;97301.31;5036303;28;20080;-45
2023/03/13 05:54:00;;;;;;;6.82;1.27;;;;;;;11.26;79.51;97308.56;5039678;28;20068;-44
2023/03/13 05:56:26;;;;;;;6.47;1.83;;;;;;;11.22;79.29;97309.66;5035305;28;20052;-48
2023/03/13 05:58:53;;;;;;;5.25;1.25;;;;;;;11.18;80.04;97295.16;5037849;28;20107;-43
2023/03/13 06:01:19;;;;;;;5.15;1.70;;;;;;;11.12;78.87;97275.59;5032140;28;20523;-50
2023/03/13 06:03:46;;;;;;;1.77;0.85;;;;;;;11.02;79.63;97282.94;5034961;28;21919;-44
2023/03/13 06:06:13;;;;;;;3.90;1.70;;;;;;;11.01;79.11;97277.88;5030335;28;20063;-47
2023/03/13 06:08:39;;;;;;;3.53;1.02;;;;;;;11.03;78.23;97276.88;5035301;28;20068;-47
2023/03/13 06:11:06;;;;;;;4.40;1.48;;;;;;;11.02;78.31;97280.34;5031279;28;20068;-49
2023/03/13 06:13:32;;;;;;;2.63;1.50;;;;;;;10.96;78.91;97270.31;5035225;28;20591;-46
2023/03/13 06:15:59;;;;;;;5.68;1.95;;;;;;;10.96;78.81;97270.31;5035576;28;20150;-44
2023/03/13 06:18:26;;;;;;;7.57;1.10;;;;;;;10.92;78.36;97268.78;5033145;28;21744;-44
2023/03/13 06:20:58;;;;;;;4.63;1.75;;;;;;;10.96;77.98;97244.41;5027196;28;20124;-44
2023/03/13 06:23:25;;;;;;;6.00;1.73;;;;;;;10.91;77.62;97251.59;5038324;28;20102;-49
2023/03/13 06:25:51;;;;;;;9.90;2.17;;;;;;;10.92;76.55;97242.91;5036810;28;20477;-46
2023/03/13 06:28:18;;;;;;;8.27;2.25;;;;;;;10.93;77.60;97250.59;5034780;28;20091;-50
2023/03/13 06:30:44;;;;;;;6.47;1.92;;;;;;;10.91;76.63;97251.59;5035902;28;20083;-47
2023/03/13 06:33:11;;;;;;;9.30;2.20;;;;;;;10.90;76.91;97239.53;5032316;28;20080;-44
2023/03/13 06:35:40;;;;;;;8.40;1.42;;;;;;;10.92;77.18;97232.53;5031642;28;20084;-43
2023/03/13 06:38:21;;;;;;;6.13;1.80;;;;;;;10.82;76.51;97245.09;5036497;28;20060;-46
2023/03/13 06:40:48;;;;;;;17.30;2.45;;;;;;;10.88;76.67;97231.03;5039191;28;20045;-47
2023/03/13 06:43:14;;;;;;;10.13;1.67;;;;;;;10.90;76.53;97229.16;5042389;28;20045;-44
2023/03/13 06:45:41;;;;;;;5.22;2.22;;;;;;;10.83;75.88;97222.63;5041463;28;20044;-44
2023/03/13 06:48:07;;;;;;;5.60;2.08;;;;;;;10.88;76.47;97218.06;5043899;28;20091;-49
2023/03/13 06:50:37;;;;;;;10.05;2.00;;;;;;;10.89;75.51;97235.28;5043049;28;20052;-45
2023/03/13 06:53:04;;;;;;;;;;;;;;;10.79;76.47;97224.53;5042236;28;20053;-46
2023/03/13 06:55:31;;;;;;;10.10;2.15;;;;;;;10.88;76.00;97231.03;5043416;28;19944;-43
2023/03/13 06:57:58;;;;;;;8.38;1.85;;;;;;;10.96;76.40;97234.06;5041333;28;20106;-42
2023/03/13 07:00:24;;;;;;;9.98;2.80;;;;;;;10.94;75.38;97243.63;5044632;28;20118;-44
2023/03/13 07:02:51;;;;;;;9.70;2.30;;;;;;;10.97;75.98;97235.72;5041881;28;20094;-46
2023/03/13 07:05:18;;;;;;;9.95;2.45;;;;;;;11.02;75.23;97227.75;5038446;28;20053;-43
2023/03/13 07:07:44;;;;;;;10.52;2.42;;;;;;;11.09;76.10;97228.25;5037901;28;20120;-44
2023/03/13 07:10:11;;;;;;;9.90;1.92;;;;;;;11.05;75.99;97223.22;5041195;28;20087;-45
2023/03/13 07:12:37;;;;;;;11.48;2.22;;;;;;;11.12;74.59;97208.25;5041959;28;20049;-43
2023/03/13 07:15:05;;;;;;;8.82;2.10;;;;;;;11.19;74.45;97229.47;5041323;28;20053;-42
2023/03/13 07:17:31;;;;;;;11.90;2.05;;;;;;;11.16;74.54;97221.84;5034218;28;20080;-48
2023/03/13 07:19:58;;;;;;;8.18;1.48;;;;;;;11.19;74.61;97219.13;5037541;28;20049;-46
2023/03/13 07:22:25;;;;;;;4.68;2.33;;;;;;;11.19;75.37;97219.94;5034127;28;20072;-46
2023/03/13 07:24:51;;;;;;;10.43;2.50;;;;;;;11.14;74.99;97218.50;5042344;28;20166;-46
2023/03/13 07:27:19;;;;;;;12.00;1.10;;;;;;;11.17;75.45;97210.56;5033972;28;20646;-45
2023/03/13 07:32:22;;;;;;;13.18;2.95;;;;;;;11.18;76.07;97201.91;5032941;27;20398;-42
2023/03/13 07:34:49;;;;;;;10.07;2.92;;;;;;;11.28;75.90;97195.31;5007279;28;20068;-46
2023/03/13 07:37:16;;;;;;;6.43;0.98;;;;;;;11.35;75.62;97187.25;5004360;28;20677;-45
2023/03/13 07:39:43;;;;;;;4.82;0.68;;;;;;;11.42;74.54;97170.47;5012694;28;20053;-49
2023/03/13 07:42:11;;;;;;;8.60;2.60;;;;;;;11.37;75.03;97182.81;5004755;28;20073;-46
2023/03/13 07:44:37;;;;;;;9.40;2.63;;;;;;;11.37;75.54;97185.38;5008965;28;20152;-45
2023/03/13 07:47:04;;;;;;;9.85;1.50;;;;;;;11.30;75.63;97170.19;5013071;28;20042;-49
2023/03/13 07:49:32;;;;;;;6.15;1.08;;;;;;;11.18;75.81;97176.81;5010136;28;20097;-44
2023/03/13 07:51:59;;;;;;;5.53;0.98;;;;;;;11.13;76.77;97157.25;5007622;28;20045;-46
2023/03/13 07:54:25;;;;;;;8.10;0.82;;;;;;;11.23;76.50;97163.63;5010238;28;20141;-44
2023/03/13 07:56:52;;;;;;;10.68;1.35;;;;;;;11.23;76.45;97170.56;5006566;28;20049;-45
2023/03/13 07:59:19;;;;;;;5.35;0.82;;;;;;;11.22;76.93;97169.75;5009480;28;20049;-44
2023/03/13 08:01:45;;;;;;;8.85;1.40;;;;;;;11.24;76.51;97170.50;5011086;28;20053;-46
2023/03/13 08:04:13;;;;;;;7.53;0.98;;;;;;;11.16;76.76;97162.28;5008115;28;20107;-42
2023/03/13 08:06:40;;;;;;;8.15;1.45;;;;;;;11.10;77.18;97157.41;5007655;28;20042;-48
2023/03/13 08:09:09;;;;;;;12.68;3.53;;;;;;;11.17;76.71;97153.59;5006579;28;20072;-47
2023/03/13 08:11:40;;;;;;;6.28;1.50;;;;;;;11.21;76.18;97155.09;5006411;28;20037;-45
2023/03/13 08:14:06;;;;;;;11.00;1.10;;;;;;;11.28;75.98;97169.41;5007775;28;20041;-44
2023/03/13 08:16:34;;;;;;;4.35;2.72;;;;;;;11.28;75.88;97166.81;5008331;28;20104;-44
2023/03/13 08:19:03;;;;;;;5.65;1.20;;;;;;;11.26;76.28;97171.25;5011087;28;20138;-46
2023/03/13 08:21:33;;;;;;;8.52;1.63;;;;;;;11.26;76.45;97163.50;5004766;28;20124;-47
2023/03/13 08:24:04;;;;;;;6.20;1.17;;;;;;;11.27;76.51;97153.94;5001858;28;20046;-47
2023/03/13 08:26:33;;;;;;;7.88;1.67;;;;;;;11.13;76.81;97142.56;5008861;28;20046;-48
2023/03/13 08:29:02;;;;;;;14.32;1.60;;;;;;;11.25;76.50;97143.66;5003959;28;20481;-47
2023/03/13 08:31:32;;;;;;;7.35;1.08;;;;;;;11.27;77.82;97143.56;5007930;28;20152;-44
2023/03/13 08:34:00;;;;;;;8.15;0.85;;;;;;;11.24;77.93;97148.91;5001314;28;20085;-43
2023/03/13 08:36:32;;;;;;;7.32;1.60;;;;;;;11.17;76.99;97149.25;5002933;28;20046;-45
2023/03/13 08:39:02;;;;;;;6.85;1.33;;;;;;;11.14;77.04;97127.84;5006089;28;20931;-48
2023/03/13 08:41:33;;;;;;;7.95;1.33;;;;;;;11.09;77.66;97140.19;5009174;28;20147;-45
2023/03/13 08:44:00;;;;;;;8.93;1.13;;;;;;;11.10;78.35;97136.69;4993467;28;20038;-45
2023/03/13 08:46:30;;;;;;;7.93;1.15;;;;;;;11.03;78.35;97121.47;5000579;28;20077;-45
2023/03/13 08:48:57;;;;;;;12.93;0.80;;;;;;;11.10;78.30;97132.34;5000215;28;20093;-44
2023/03/13 08:51:27;;;;;;;9.50;1.52;;;;;;;11.11;78.27;97121.06;4997788;28;20050;-45
2023/03/13 08:53:54;;;;;;;8.52;1.67;;;;;;;11.11;77.85;97125.44;4991310;28;20077;-43
2023/03/13 08:56:24;;;;;;;9.93;3.03;;;;;;;11.07;78.25;97126.50;5000589;28;20137;-43
2023/03/13 08:58:53;;;;;;;11.88;1.10;;;;;;;11.11;77.34;97138.38;4994109;28;20104;-50
2023/03/13 09:01:22;;;;;;;13.00;3.35;;;;;;;11.04;78.11;97133.50;4993935;28;20085;-45
2023/03/13 09:03:49;;;;;;;6.65;0.88;;;;;;;11.04;77.71;97149.03;4979658;28;20070;-46
2023/03/13 09:06:16;;;;;;;7.25;1.15;;;;;;;11.02;78.51;97156.03;5006989;28;20050;-44
2023/03/13 09:08:43;;;;;;;11.45;1.17;;;;;;;11.00;78.19;97168.25;4995573;28;20136;-48
2023/03/13 09:11:13;;;;;;;13.25;1.92;;;;;;;10.96;78.38;97161.53;4992373;28;20148;-44
2023/03/13 09:13:42;;;;;;;6.40;1.25;;;;;;;10.90;79.41;97152.34;4991419;28;20118;-48
2023/03/13 09:16:11;;;;;;;11.98;1.73;;;;;;;10.94;79.00;97163.38;4992219;28;20050;-46
2023/03/13 09:18:38;;;;;;;13.15;2.63;;;;;;;10.89;78.98;97155.00;4996536;28;20554;-45
2023/03/13 09:21:08;;;;;;;6.68;1.70;;;;;;;10.91;79.61;97168.72;4997345;28;20046;-44
2023/03/13 09:23:35;;;;;;;7.25;1.08;;;;;;;10.84;79.87;97152.63;4995716;28;20166;-45
2023/03/13 09:26:02;;;;;;;7.47;0.95;;;;;;;10.98;78.67;97158.88;4995452;28;20046;-44
2023/03/13 09:28:29;;;;;;;7.78;1.50;;;;;;;11.07;79.21;97152.41;5003982;28;20482;-46
2023/03/13 09:31:05;;;;;;;16.75;3.33;;;;;;;11.12;78.51;97147.81;4997319;28;20754;-50
2023/03/13 09:33:32;;;;;;;11.82;3.58;;;;;;;11.13;78.32;97141.72;4999358;28;20054;-47
2023/03/13 09:35:58;;;;;;;6.10;1.33;;;;;;;11.11;77.88;97166.88;4994367;28;20577;-44
2023/03/13 09:38:26;;;;;;;10.48;2.83;;;;;;;11.16;77.51;97159.69;4996987;28;22101;-46
2023/03/13 09:40:53;;;;;;;8.13;1.25;;;;;;;11.13;77.39;97162.44;5000588;28;20070;-46
2023/03/13 09:46:18;;;;;;;11.95;1.27;;;;;;;11.15;77.64;97155.44;5054890;28;20411;-43
2023/03/13 09:48:50;;;;;;;12.32;2.00;;;;;;;11.06;76.57;97138.59;5021546;28;20099;-47
2023/03/13 09:51:23;;;;;;;10.85;1.83;;;;;;;11.19;75.97;97154.34;5007207;28;20058;-46
2023/03/13 09:56:38;;;;;;;8.93;3.90;;;;;;;11.19;76.46;97152.59;5017945;27;20402;-46
2023/03/13 09:59:15;;;;;;;8.75;0.70;;;;;;;11.25;76.53;97166.16;5011096;28;20457;-49
2023/03/13 10:01:44;;;;;;;7.68;2.40;;;;;;;11.22;75.15;97156.78;5012437;28;20049;-45
2023/03/13 10:06:47;;;;;;;5.40;0.88;;;;;;;11.33;75.16;97176.94;5064422;27;20406;-46
2023/03/13 10:09:19;;;;;;;7.43;1.52;;;;;;;11.38;75.11;97171.53;4995069;28;20926;-46
2023/03/13 10:11:54;;;;;;;6.50;0.98;;;;;;;11.32;75.30;97163.16;5007188;28;20103;-47
2023/03/13 10:14:44;;;;;;;7.85;1.42;;;;;;;11.35;74.23;97156.16;5009461;28;20140;-47
2023/03/13 10:17:32;;;;;;;13.23;3.00;;;;;;;11.35;74.93;97158.75;5019805;28;20045;-51
2023/03/13 10:20:13;;;;;;;12.85;2.15;;;;;;;11.39;73.91;97162.84;4993708;28;20074;-47
2023/03/13 10:22:42;;;;;;;11.40;2.38;;;;;;;11.45;74.29;97172.88;4995144;28;20045;-50
2023/03/13 10:25:31;;;;;;;11.23;1.40;;;;;;;11.43;73.59;97165.19;5011745;28;20123;-49
2023/03/13 10:27:59;;;;;;;10.93;1.75;;;;;;;11.53;73.29;97175.91;5008409;28;20127;-45
2023/03/13 10:35:43;;;;;;;8.85;2.13;;;;;;;11.61;73.06;97188.44;5010435;28;20415;-45
2023/03/13 10:41:06;;;;;;;11.40;1.65;;;;;;;11.55;72.48;97184.44;5010687;28;20416;-44
2023/03/13 10:43:32;;;;;;;10.23;1.55;;;;;;;11.58;72.56;97170.47;4990808;28;20145;-44
2023/03/13 10:46:00;;;;;;;10.55;1.40;;;;;;;11.56;73.06;97180.91;4998090;28;20145;-48
2023/03/13 10:48:34;;;;;;;7.13;1.40;;;;;;;11.59;72.73;97184.28;4995877;28;20058;-50
2023/03/13 10:51:01;;;;;;;7.65;1.38;;;;;;;11.52;72.25;97171.63;5000866;28;20101;-43
2023/03/13 10:56:13;;;;;;;9.27;2.35;;;;;;;11.57;72.45;97182.59;5069927;27;20400;-48
2023/03/13 10:58:45;;;;;;;13.43;1.98;;;;;;;11.59;73.28;97185.13;5039070;28;20075;-46
2023/03/13 11:01:32;;;;;;;11.98;2.58;;;;;;;11.59;72.61;97189.47;5038816;28;20049;-46
2023/03/13 11:04:18;;;;;;;12.20;2.35;;;;;;;11.59;72.28;97181.69;5068510;28;20564;-51
2023/03/13 11:07:00;;;;;;;10.88;1.88;;;;;;;11.61;72.54;97182.41;5038835;28;20107;-50
2023/03/13 11:09:26;;;;;;;13.48;2.03;;;;;;;11.66;73.05;97165.69;5039618;28;20076;-48
2023/03/13 11:11:55;;;;;;;14.50;1.58;;;;;;;11.72;72.30;97190.47;5033602;28;20050;-41
2023/03/13 11:14:24;;;;;;;9.98;1.85;;;;;;;11.75;72.63;97185.13;5034542;28;20095;-43
2023/03/13 11:16:55;;;;;;;16.40;1.67;;;;;;;11.77;72.98;97221.34;5033096;28;20512;-46
2023/03/13 11:36:58;;;;;;;18.58;4.07;;;;;;;12.37;71.05;97177.53;5043868;28;20413;-48
2023/03/13 11:59:25;;;;;;;12.63;1.52;;;;;;;12.74;67.87;97183.22;5031629;27;20425;-45
2023/03/13 12:02:01;;;;;;;15.18;2.05;;;;;;;12.72;67.81;97179.84;5012688;28;20576;-47
2023/03/13 12:04:35;;;;;;;;;;;;;;;12.55;66.38;97192.06;5014089;28;20061;-45
2023/03/13 12:07:15;;;;;;;12.57;1.83;;;;;;;12.60;67.37;97181.41;5011049;28;19948;-46
2023/03/13 12:09:50;;;;;;;12.82;1.33;;;;;;;12.58;67.47;97207.47;5014890;28;20057;-45
2023/03/13 12:17:41;;;;;;;12.82;2.78;;;;;;;12.58;66.48;97194.50;5061328;27;20955;-46
2023/03/13 12:20:33;;;;;;;12.20;1.80;;;;;;;12.60;66.97;97192.63;5037721;28;20095;-42
2023/03/13 12:25:57;;;;;;;9.68;1.90;;;;;;;12.66;66.67;97175.84;5028705;27;20419;-47
2023/03/13 12:31:25;;;;;;;19.58;3.47;;;;;;;12.71;64.92;97181.59;5046727;27;20406;-45
2023/03/13 12:36:34;;;;;;;18.05;1.98;;;;;;;12.76;64.94;97177.94;5093420;27;20402;-46
2023/03/13 12:41:59;;;;;;;11.13;2.90;;;;;;;13.01;66.48;97166.94;5056574;27;20395;-46
2023/03/13 12:44:26;;;;;;;9.45;1.90;;;;;;;13.03;65.14;97172.06;5046732;28;20148;-41
2023/03/13 12:52:55;;;;;;;15.68;2.15;;;;;;;13.28;64.47;97161.03;5066563;27;20406;-44
2023/03/13 12:58:24;;;;;;;15.60;1.80;;;;;;;13.51;64.01;97171.81;5054094;27;20398;-46
2023/03/13 13:00:52;;;;;;;11.05;1.25;;;;;;;13.60;63.26;97158.25;5018250;28;20080;-44
2023/03/13 13:06:09;;;;;;;8.85;1.27;;;;;;;13.58;62.88;97151.47;5019764;27;20410;-47
2023/03/13 14:38:20;;;;;;;11.77;2.33;;;;;;;13.80;58.69;97041.72;6088278;23;1319853;-46
2023/03/13 14:40:48;;;;;;;9.57;2.03;;;;;;;13.86;58.91;97046.53;6147360;23;20050;-45
2023/03/13 14:43:22;;;;;;;15.98;2.42;;;;;;;13.93;59.59;97043.53;6108208;23;20861;-46
2023/03/13 14:45:49;;;;;;;14.02;2.28;;;;;;;13.97;58.65;97027.63;6085485;23;20639;-47
2023/03/13 14:48:21;;;;;;;10.98;1.88;;;;;;;13.93;58.07;97040.91;6093813;23;20054;-45
2023/03/13 14:50:51;;;;;;;10.07;1.25;;;;;;;13.97;58.73;97038.03;6096401;23;20030;-45
2023/03/13 14:53:34;;;;;;;9.75;1.48;;;;;;;14.02;59.06;97045.53;6094302;23;20033;-46
2023/03/13 14:56:11;;;;;;;7.25;1.15;;;;;;;14.03;58.50;97015.13;6072588;23;20759;-46